This is the latest recevied weather packets stored in our database for station/object KD9IXX-13. If no packets are shown the sender has not sent any weather packets the latest 1 day(s).
| Time | Temp. | Humidity | Pressure | Rain* | Wind** | Luminosity | Snow |
|---|---|---|---|---|---|---|---|
| 1836274676 | 21.11° C | 82% | 1016.8 hPa | 0 mm | 0.45 m/s, 220° | 0 W/m² | - |
| 1836274525 | 21.11° C | 81% | 1017.1 hPa | 0 mm | 0.45 m/s, 234° | 0 W/m² | - |
| 1836274375 | 21.11° C | 80% | 1016.8 hPa | 0 mm | 0 m/s | 0 W/m² | - |
| 1836274226 | 21.11° C | 81% | 1017.1 hPa | 0 mm | 0.89 m/s, 207° | 0 W/m² | - |
| 1836274076 | 21.11° C | 80% | 1016.8 hPa | 0 mm | 0 m/s | 0 W/m² | - |
| 1778048402 | 8.33° C | 63% | 1012 hPa | 0 mm | 0 m/s | 0 W/m² | - |
| 1778048102 | 8.33° C | 63% | 1012.2 hPa | 0 mm | 0 m/s | 0 W/m² | - |
| 1778047801 | 8.33° C | 62% | 1011.9 hPa | 0 mm | 0.89 m/s, 306° | 0 W/m² | - |
| 1778047502 | 8.33° C | 63% | 1012.2 hPa | 0 mm | 0.45 m/s, 296° | 0 W/m² | - |
| 1778047202 | 8.33° C | 64% | 1012.3 hPa | 0 mm | 0.89 m/s, 300° | 0 W/m² | - |
| 1778046902 | 8.33° C | 64% | 1012.3 hPa | 0 mm | 0.45 m/s, 300° | 0 W/m² | - |
| 1778046603 | 8.33° C | 64% | 1012.2 hPa | 0 mm | 0.45 m/s, 302° | 0 W/m² | - |
| 1778046302 | 8.33° C | 65% | 1012.3 hPa | 0 mm | 0.45 m/s, 300° | 0 W/m² | - |
| 1778046002 | 8.89° C | 64% | 1012.3 hPa | 0 mm | 0.89 m/s, 302° | 0 W/m² | - |
| 1778045702 | 8.89° C | 64% | 1012.1 hPa | 0 mm | 0.45 m/s, 297° | 0 W/m² | - |
| 1778045402 | 8.89° C | 62% | 1012.2 hPa | 0 mm | 0.45 m/s, 310° | 0 W/m² | - |
| 1778045102 | 8.89° C | 62% | 1012.2 hPa | 0 mm | 0.89 m/s, 307° | 0 W/m² | - |
| 1778044802 | 9.44° C | 64% | 1012.2 hPa | 0 mm | 0 m/s | 0 W/m² | - |
| 1778044502 | 9.44° C | 64% | 1012 hPa | 0 mm | 1.34 m/s, 301° | 0 W/m² | - |
| 1778044202 | 9.44° C | 63% | 1011.8 hPa | 0 mm | 0.45 m/s, 303° | 0 W/m² | - |
| 1778043902 | 8.89° C | 66% | 1011.8 hPa | 0 mm | 0.45 m/s, 304° | 0 W/m² | - |
| 1778043602 | 8.89° C | 67% | 1011.8 hPa | 0 mm | 0 m/s | 0 W/m² | - |
| 1778043302 | 9.44° C | 66% | 1011.6 hPa | 0 mm | 0 m/s | 0 W/m² | - |
| 1778043002 | 9.44° C | 65% | 1011.5 hPa | 0 mm | 0 m/s | 0 W/m² | - |
| 1778042702 | 9.44° C | 65% | 1011.6 hPa | 0 mm | 0 m/s | 0 W/m² | - |
* Rain latest hour (hover to see other rain measurements)
** Current wind speed in m/s (hover to see current wind gust speed)